sensor_id;sensor_type;location;lat;lon;timestamp;pressure;altitude;pressure_sealevel;temperature;humidity
45327;BME280;31062;49.678;24.560;2023-04-28T00:02:03;98432.53;;;6.26;59.69
45327;BME280;31062;49.678;24.560;2023-04-28T00:04:49;98623.84;;;7.38;60.21
45327;BME280;31062;49.678;24.560;2023-04-28T00:07:35;98602.06;;;7.27;60.21
45327;BME280;31062;49.678;24.560;2023-04-28T00:10:20;98438.63;;;6.03;60.45
45327;BME280;31062;49.678;24.560;2023-04-28T00:13:05;98445.63;;;6.04;61.20
45327;BME280;31062;49.678;24.560;2023-04-28T00:15:51;98638.66;;;7.20;61.30
45327;BME280;31062;49.678;24.560;2023-04-28T00:18:37;98622.59;;;7.11;61.96
45327;BME280;31062;49.678;24.560;2023-04-28T00:21:23;98481.25;;;6.10;61.59
45327;BME280;31062;49.678;24.560;2023-04-28T00:24:08;98450.94;;;5.82;62.38
45327;BME280;31062;49.678;24.560;2023-04-28T00:26:53;98464.16;;;5.83;62.87
45327;BME280;31062;49.678;24.560;2023-04-28T00:29:39;98561.06;;;6.31;62.63
45327;BME280;31062;49.678;24.560;2023-04-28T00:32:24;98445.91;;;5.52;63.01
45327;BME280;31062;49.678;24.560;2023-04-28T00:35:09;98458.69;;;5.49;63.52
45327;BME280;31062;49.678;24.560;2023-04-28T00:37:55;98567.19;;;6.16;64.00
45327;BME280;31062;49.678;24.560;2023-04-28T00:40:40;98626.59;;;6.32;63.85
45327;BME280;31062;49.678;24.560;2023-04-28T00:43:26;98503.88;;;5.54;63.79
45327;BME280;31062;49.678;24.560;2023-04-28T00:46:24;98482.78;;;5.36;64.76
45327;BME280;31062;49.678;24.560;2023-04-28T00:49:11;98463.63;;;5.09;65.58
45327;BME280;31062;49.678;24.560;2023-04-28T00:51:56;98619.78;;;5.92;66.23
45327;BME280;31062;49.678;24.560;2023-04-28T00:54:48;98648.53;;;5.70;66.88
45327;BME280;31062;49.678;24.560;2023-04-28T00:57:35;98477.03;;;4.53;67.27
45327;BME280;31062;49.678;24.560;2023-04-28T01:00:20;98413.34;;;4.01;67.22
45327;BME280;31062;49.678;24.560;2023-04-28T01:03:06;98595.50;;;5.22;67.56
45327;BME280;31062;49.678;24.560;2023-04-28T01:05:52;98450.00;;;4.30;67.17
45327;BME280;31062;49.678;24.560;2023-04-28T01:08:38;98595.06;;;5.31;66.76
45327;BME280;31062;49.678;24.560;2023-04-28T01:11:30;98633.00;;;5.59;66.77
45327;BME280;31062;49.678;24.560;2023-04-28T01:14:39;98606.88;;;5.53;66.67
45327;BME280;31062;49.678;24.560;2023-04-28T01:17:25;98606.88;;;5.53;66.50
45327;BME280;31062;49.678;24.560;2023-04-28T01:20:11;98578.16;;;5.41;66.30
45327;BME280;31062;49.678;24.560;2023-04-28T01:22:56;98658.19;;;5.84;66.25
45327;BME280;31062;49.678;24.560;2023-04-28T01:25:43;98614.91;;;5.51;66.14
45327;BME280;31062;49.678;24.560;2023-04-28T01:28:28;98456.97;;;4.58;66.14
45327;BME280;31062;49.678;24.560;2023-04-28T01:31:14;98657.06;;;5.80;66.34
45327;BME280;31062;49.678;24.560;2023-04-28T01:33:59;98611.13;;;5.41;66.13
45327;BME280;31062;49.678;24.560;2023-04-28T01:36:44;98462.66;;;4.46;66.49
45327;BME280;31062;49.678;24.560;2023-04-28T01:39:30;98603.31;;;5.31;66.70
45327;BME280;31062;49.678;24.560;2023-04-28T01:42:15;98497.72;;;4.40;66.81
45327;BME280;31062;49.678;24.560;2023-04-28T01:45:01;98628.09;;;5.18;67.16
45327;BME280;31062;49.678;24.560;2023-04-28T01:47:47;98681.75;;;5.32;67.18
45327;BME280;31062;49.678;24.560;2023-04-28T01:50:33;98442.78;;;3.88;67.13
45327;BME280;31062;49.678;24.560;2023-04-28T01:53:21;98597.00;;;4.97;67.34
45327;BME280;31062;49.678;24.560;2023-04-28T01:56:06;98661.88;;;5.26;67.22
45327;BME280;31062;49.678;24.560;2023-04-28T01:58:52;98626.81;;;5.06;67.25
45327;BME280;31062;49.678;24.560;2023-04-28T02:01:38;98579.88;;;4.51;67.21
45327;BME280;31062;49.678;24.560;2023-04-28T02:04:24;98663.25;;;5.07;67.22
45327;BME280;31062;49.678;24.560;2023-04-28T02:07:09;98600.38;;;4.77;66.93
45327;BME280;31062;49.678;24.560;2023-04-28T02:09:54;98482.03;;;3.96;66.86
45327;BME280;31062;49.678;24.560;2023-04-28T02:12:40;98646.47;;;5.23;66.63
45327;BME280;31062;49.678;24.560;2023-04-28T02:15:26;98466.09;;;3.94;66.19
45327;BME280;31062;49.678;24.560;2023-04-28T02:18:12;98675.63;;;5.13;66.51
45327;BME280;31062;49.678;24.560;2023-04-28T02:20:57;98628.91;;;4.74;66.70
45327;BME280;31062;49.678;24.560;2023-04-28T02:23:42;98659.97;;;4.95;66.99
45327;BME280;31062;49.678;24.560;2023-04-28T02:26:28;98477.97;;;3.70;67.08
45327;BME280;31062;49.678;24.560;2023-04-28T02:29:13;98453.88;;;3.50;67.12
45327;BME280;31062;49.678;24.560;2023-04-28T02:31:59;98658.28;;;4.79;67.62
45327;BME280;31062;49.678;24.560;2023-04-28T02:34:44;98644.28;;;4.50;67.87
45327;BME280;31062;49.678;24.560;2023-04-28T02:37:30;98470.81;;;3.17;68.30
45327;BME280;31062;49.678;24.560;2023-04-28T02:40:15;98668.53;;;4.33;68.74
45327;BME280;31062;49.678;24.560;2023-04-28T02:43:01;98614.53;;;3.91;68.72
45327;BME280;31062;49.678;24.560;2023-04-28T02:45:47;98653.25;;;4.19;69.15
45327;BME280;31062;49.678;24.560;2023-04-28T02:48:32;98639.31;;;4.17;69.14
45327;BME280;31062;49.678;24.560;2023-04-28T02:51:19;98592.38;;;3.89;68.85
45327;BME280;31062;49.678;24.560;2023-04-28T02:54:05;98673.09;;;4.44;68.68
45327;BME280;31062;49.678;24.560;2023-04-28T02:56:50;98580.53;;;3.81;68.51
45327;BME280;31062;49.678;24.560;2023-04-28T02:59:36;98668.53;;;4.33;68.44
45327;BME280;31062;49.678;24.560;2023-04-28T03:02:21;98611.97;;;3.61;68.26
45327;BME280;31062;49.678;24.560;2023-04-28T03:05:08;98482.50;;;2.99;68.61
45327;BME280;31062;49.678;24.560;2023-04-28T03:07:54;98601.94;;;3.63;68.52
45327;BME280;31062;49.678;24.560;2023-04-28T03:10:39;98693.34;;;4.41;68.32
45327;BME280;31062;49.678;24.560;2023-04-28T03:13:24;98697.28;;;4.45;68.03
45327;BME280;31062;49.678;24.560;2023-04-28T03:16:11;98670.38;;;4.25;67.92
45327;BME280;31062;49.678;24.560;2023-04-28T03:18:56;98707.06;;;4.41;67.79
45327;BME280;31062;49.678;24.560;2023-04-28T03:21:43;98704.69;;;4.50;67.51
45327;BME280;31062;49.678;24.560;2023-04-28T03:24:30;98564.38;;;3.58;67.23
45327;BME280;31062;49.678;24.560;2023-04-28T03:27:16;98563.53;;;3.50;67.21
45327;BME280;31062;49.678;24.560;2023-04-28T03:30:02;98595.88;;;3.70;66.88
45327;BME280;31062;49.678;24.560;2023-04-28T03:32:48;98715.66;;;4.50;66.73
45327;BME280;31062;49.678;24.560;2023-04-28T03:35:33;98496.59;;;3.08;66.18
45327;BME280;31062;49.678;24.560;2023-04-28T03:38:19;98552.56;;;3.50;65.93
45327;BME280;31062;49.678;24.560;2023-04-28T03:41:05;98629.28;;;3.88;66.00
45327;BME280;31062;49.678;24.560;2023-04-28T03:44:09;98692.22;;;4.49;66.01
45327;BME280;31062;49.678;24.560;2023-04-28T03:47:03;98754.81;;;4.70;65.85
45327;BME280;31062;49.678;24.560;2023-04-28T03:49:49;98691.97;;;4.34;66.25
45327;BME280;31062;49.678;24.560;2023-04-28T03:52:36;98601.94;;;3.82;66.39
45327;BME280;31062;49.678;24.560;2023-04-28T03:55:23;98694.97;;;4.49;66.15
45327;BME280;31062;49.678;24.560;2023-04-28T03:58:10;98532.91;;;3.46;66.87
45327;BME280;31062;49.678;24.560;2023-04-28T04:00:56;98616.50;;;4.09;67.07
45327;BME280;31062;49.678;24.560;2023-04-28T04:03:41;98713.53;;;4.75;67.08
45327;BME280;31062;49.678;24.560;2023-04-28T04:06:29;98624.34;;;4.18;66.99
45327;BME280;31062;49.678;24.560;2023-04-28T04:09:15;98681.06;;;4.61;67.04
45327;BME280;31062;49.678;24.560;2023-04-28T04:12:01;98677.91;;;4.70;67.19
45327;BME280;31062;49.678;24.560;2023-04-28T04:14:46;98720.53;;;5.03;67.07
45327;BME280;31062;49.678;24.560;2023-04-28T04:17:32;98728.69;;;5.08;66.99
45327;BME280;31062;49.678;24.560;2023-04-28T04:20:18;98542.13;;;3.81;67.15
45327;BME280;31062;49.678;24.560;2023-04-28T04:23:03;98718.97;;;5.07;67.46
45327;BME280;31062;49.678;24.560;2023-04-28T04:25:48;98757.47;;;5.20;67.42
45327;BME280;31062;49.678;24.560;2023-04-28T04:28:35;98695.03;;;4.89;67.90
45327;BME280;31062;49.678;24.560;2023-04-28T04:31:23;98557.41;;;4.08;67.67
45327;BME280;31062;49.678;24.560;2023-04-28T04:34:09;98552.97;;;4.18;67.56
45327;BME280;31062;49.678;24.560;2023-04-28T04:36:55;98689.25;;;4.92;67.17
45327;BME280;31062;49.678;24.560;2023-04-28T04:39:41;98605.66;;;4.62;67.23
45327;BME280;31062;49.678;24.560;2023-04-28T04:42:27;98759.28;;;5.70;66.79
45327;BME280;31062;49.678;24.560;2023-04-28T04:45:38;98734.66;;;5.65;66.49
45327;BME280;31062;49.678;24.560;2023-04-28T04:48:24;98744.34;;;5.79;66.58
45327;BME280;31062;49.678;24.560;2023-04-28T04:51:10;98692.03;;;5.32;65.97
45327;BME280;31062;49.678;24.560;2023-04-28T04:53:55;98634.81;;;5.30;66.05
45327;BME280;31062;49.678;24.560;2023-04-28T04:56:41;98588.44;;;5.14;65.54
45327;BME280;31062;49.678;24.560;2023-04-28T04:59:28;98575.31;;;5.20;65.22
45327;BME280;31062;49.678;24.560;2023-04-28T05:02:24;98771.06;;;6.65;64.95
45327;BME280;31062;49.678;24.560;2023-04-28T05:05:10;98575.50;;;5.69;64.68
45327;BME280;31062;49.678;24.560;2023-04-28T05:08:22;98586.19;;;6.06;63.64
45327;BME280;31062;49.678;24.560;2023-04-28T05:11:07;98758.50;;;7.47;62.28
45327;BME280;31062;49.678;24.560;2023-04-28T05:13:53;98754.09;;;7.80;62.58
45327;BME280;31062;49.678;24.560;2023-04-28T05:16:41;98759.19;;;8.12;61.67
45327;BME280;31062;49.678;24.560;2023-04-28T05:19:33;98762.25;;;8.37;60.81
45327;BME280;31062;49.678;24.560;2023-04-28T05:22:20;98775.97;;;8.57;60.45
45327;BME280;31062;49.678;24.560;2023-04-28T05:25:06;98751.66;;;8.71;59.49
45327;BME280;31062;49.678;24.560;2023-04-28T05:27:52;98750.94;;;8.86;59.41
45327;BME280;31062;49.678;24.560;2023-04-28T05:30:37;98765.69;;;9.19;58.93
45327;BME280;31062;49.678;24.560;2023-04-28T05:33:22;98590.78;;;8.27;58.22
45327;BME280;31062;49.678;24.560;2023-04-28T05:36:08;98760.06;;;9.72;57.08
45327;BME280;31062;49.678;24.560;2023-04-28T05:38:54;98708.06;;;9.63;56.75
45327;BME280;31062;49.678;24.560;2023-04-28T05:41:39;98605.22;;;9.26;53.24
45327;BME280;31062;49.678;24.560;2023-04-28T05:44:25;98765.72;;;10.52;51.43
45327;BME280;31062;49.678;24.560;2023-04-28T05:47:12;98609.19;;;9.48;50.70
45327;BME280;31062;49.678;24.560;2023-04-28T05:49:57;98729.59;;;10.35;50.58
45327;BME280;31062;49.678;24.560;2023-04-28T05:52:44;98781.50;;;10.67;50.54
45327;BME280;31062;49.678;24.560;2023-04-28T05:55:30;98721.53;;;10.54;51.04
45327;BME280;31062;49.678;24.560;2023-04-28T05:58:16;98778.25;;;11.10;50.65
45327;BME280;31062;49.678;24.560;2023-04-28T06:01:02;98749.41;;;10.88;49.86
45327;BME280;31062;49.678;24.560;2023-04-28T06:03:47;98736.59;;;10.93;49.99
45327;BME280;31062;49.678;24.560;2023-04-28T06:06:33;98645.66;;;10.42;49.82
45327;BME280;31062;49.678;24.560;2023-04-28T06:09:19;98743.09;;;11.13;48.80
45327;BME280;31062;49.678;24.560;2023-04-28T06:12:05;98744.22;;;11.10;48.96
45327;BME280;31062;49.678;24.560;2023-04-28T06:14:51;98775.81;;;11.56;48.69
45327;BME280;31062;49.678;24.560;2023-04-28T06:17:40;98746.59;;;11.38;47.39
45327;BME280;31062;49.678;24.560;2023-04-28T06:20:26;98703.47;;;11.20;47.99
45327;BME280;31062;49.678;24.560;2023-04-28T06:23:12;98781.09;;;11.86;49.31
45327;BME280;31062;49.678;24.560;2023-04-28T06:26:02;98782.56;;;12.05;48.60
45327;BME280;31062;49.678;24.560;2023-04-28T06:28:48;98623.63;;;11.11;48.72
45327;BME280;31062;49.678;24.560;2023-04-28T06:31:34;98773.38;;;12.29;46.53
45327;BME280;31062;49.678;24.560;2023-04-28T06:34:20;98733.28;;;12.05;45.88
45327;BME280;31062;49.678;24.560;2023-04-28T06:37:05;98619.22;;;11.25;45.82
45327;BME280;31062;49.678;24.560;2023-04-28T06:39:51;98613.19;;;11.19;45.64
45327;BME280;31062;49.678;24.560;2023-04-28T06:42:36;98597.84;;;11.00;45.40
45327;BME280;31062;49.678;24.560;2023-04-28T06:45:28;98804.16;;;12.14;45.48
45327;BME280;31062;49.678;24.560;2023-04-28T06:48:14;98775.38;;;12.19;47.35
45327;BME280;31062;49.678;24.560;2023-04-28T06:50:59;98758.38;;;12.15;46.03
45327;BME280;31062;49.678;24.560;2023-04-28T06:53:45;98759.50;;;12.29;45.58
45327;BME280;31062;49.678;24.560;2023-04-28T06:56:32;98771.56;;;12.41;45.28
45327;BME280;31062;49.678;24.560;2023-04-28T06:59:18;98803.63;;;12.42;44.18
45327;BME280;31062;49.678;24.560;2023-04-28T07:02:03;98625.75;;;11.20;44.33
45327;BME280;31062;49.678;24.560;2023-04-28T07:04:49;98663.03;;;11.26;44.45
45327;BME280;31062;49.678;24.560;2023-04-28T07:07:35;98703.47;;;11.54;44.05
45327;BME280;31062;49.678;24.560;2023-04-28T07:10:23;98627.34;;;10.88;44.67
45327;BME280;31062;49.678;24.560;2023-04-28T07:13:08;98782.75;;;11.90;43.96
45327;BME280;31062;49.678;24.560;2023-04-28T07:15:54;98751.25;;;11.70;44.33
45327;BME280;31062;49.678;24.560;2023-04-28T07:18:40;98778.66;;;11.91;44.25
45327;BME280;31062;49.678;24.560;2023-04-28T07:21:26;98617.34;;;10.68;44.02
45327;BME280;31062;49.678;24.560;2023-04-28T07:24:12;98655.19;;;10.98;43.22
45327;BME280;31062;49.678;24.560;2023-04-28T07:26:58;98793.13;;;11.89;44.06
45327;BME280;31062;49.678;24.560;2023-04-28T07:29:43;98770.66;;;11.95;44.98
45327;BME280;31062;49.678;24.560;2023-04-28T07:32:29;98617.50;;;11.12;43.15
45327;BME280;31062;49.678;24.560;2023-04-28T07:35:16;98784.69;;;12.14;43.09
45327;BME280;31062;49.678;24.560;2023-04-28T07:38:02;98794.25;;;11.86;42.28
45327;BME280;31062;49.678;24.560;2023-04-28T07:40:48;98775.50;;;11.69;43.83
45327;BME280;31062;49.678;24.560;2023-04-28T07:43:34;98735.00;;;11.49;46.66
45327;BME280;31062;49.678;24.560;2023-04-28T07:46:19;98735.00;;;11.66;44.44
45327;BME280;31062;49.678;24.560;2023-04-28T07:49:05;98769.34;;;11.96;43.37
45327;BME280;31062;49.678;24.560;2023-04-28T07:51:52;98767.88;;;11.95;42.35
45327;BME280;31062;49.678;24.560;2023-04-28T07:54:39;98636.00;;;10.92;42.04
45327;BME280;31062;49.678;24.560;2023-04-28T07:57:25;98774.03;;;11.68;42.58
45327;BME280;31062;49.678;24.560;2023-04-28T08:00:11;98782.50;;;11.36;44.09
45327;BME280;31062;49.678;24.560;2023-04-28T08:02:56;98792.13;;;11.35;44.34
45327;BME280;31062;49.678;24.560;2023-04-28T08:05:43;98609.22;;;10.20;44.99
45327;BME280;31062;49.678;24.560;2023-04-28T08:08:29;98767.78;;;11.26;44.53
45327;BME280;31062;49.678;24.560;2023-04-28T08:11:15;98739.53;;;10.95;44.47
45327;BME280;31062;49.678;24.560;2023-04-28T08:14:01;98743.56;;;10.77;44.76
45327;BME280;31062;49.678;24.560;2023-04-28T08:16:47;98607.22;;;9.81;45.71
45327;BME280;31062;49.678;24.560;2023-04-28T08:19:33;98693.34;;;10.40;44.82
45327;BME280;31062;49.678;24.560;2023-04-28T08:22:18;98763.72;;;10.77;45.15
45327;BME280;31062;49.678;24.560;2023-04-28T08:25:04;98759.78;;;10.80;44.81
45327;BME280;31062;49.678;24.560;2023-04-28T08:27:51;98766.31;;;10.75;44.84
45327;BME280;31062;49.678;24.560;2023-04-28T08:30:40;98590.94;;;9.53;44.90
45327;BME280;31062;49.678;24.560;2023-04-28T08:33:26;98749.06;;;10.52;44.84
45327;BME280;31062;49.678;24.560;2023-04-28T08:36:11;98762.41;;;10.46;44.69
45327;BME280;31062;49.678;24.560;2023-04-28T08:38:59;98763.16;;;10.46;46.06
45327;BME280;31062;49.678;24.560;2023-04-28T08:41:46;98763.75;;;10.37;46.68
45327;BME280;31062;49.678;24.560;2023-04-28T08:44:38;98734.09;;;10.22;45.28
45327;BME280;31062;49.678;24.560;2023-04-28T08:50:20;98653.28;;;9.54;46.58
45327;BME280;31062;49.678;24.560;2023-04-28T08:53:07;98641.31;;;9.51;48.87
45327;BME280;31062;49.678;24.560;2023-04-28T08:55:55;98765.72;;;10.52;49.26
45327;BME280;31062;49.678;24.560;2023-04-28T08:58:42;98596.84;;;9.49;45.94
45327;BME280;31062;49.678;24.560;2023-04-28T09:01:27;98589.25;;;9.57;46.95
45327;BME280;31062;49.678;24.560;2023-04-28T09:04:15;98598.00;;;9.78;45.55
45327;BME280;31062;49.678;24.560;2023-04-28T09:07:02;98718.59;;;10.77;44.86
45327;BME280;31062;49.678;24.560;2023-04-28T09:09:47;98694.19;;;10.75;45.10
45327;BME280;31062;49.678;24.560;2023-04-28T09:12:36;98719.53;;;10.96;42.36
45327;BME280;31062;49.678;24.560;2023-04-28T09:18:13;98583.84;;;9.99;43.60
45327;BME280;31062;49.678;24.560;2023-04-28T09:21:06;98764.50;;;11.20;44.22
45327;BME280;31062;49.678;24.560;2023-04-28T09:23:52;98747.28;;;11.21;43.14
45327;BME280;31062;49.678;24.560;2023-04-28T09:26:48;98600.88;;;10.28;43.00
45327;BME280;31062;49.678;24.560;2023-04-28T09:29:37;98577.47;;;10.14;43.53
45327;BME280;31062;49.678;24.560;2023-04-28T09:32:23;98697.16;;;10.77;42.88
45327;BME280;31062;49.678;24.560;2023-04-28T09:35:10;98676.31;;;10.44;42.52
45327;BME280;31062;49.678;24.560;2023-04-28T09:37:59;98734.75;;;10.95;43.37
45327;BME280;31062;49.678;24.560;2023-04-28T09:40:56;98720.13;;;10.70;42.69
45327;BME280;31062;49.678;24.560;2023-04-28T09:43:42;98762.81;;;10.99;42.72
45327;BME280;31062;49.678;24.560;2023-04-28T09:46:28;98573.22;;;9.88;42.69
45327;BME280;31062;49.678;24.560;2023-04-28T09:49:14;98567.31;;;9.84;42.47
45327;BME280;31062;49.678;24.560;2023-04-28T09:52:12;98696.78;;;10.73;44.10
45327;BME280;31062;49.678;24.560;2023-04-28T09:55:00;98750.13;;;11.14;43.89
45327;BME280;31062;49.678;24.560;2023-04-28T09:57:48;98730.06;;;11.23;42.91
45327;BME280;31062;49.678;24.560;2023-04-28T10:00:35;98569.53;;;10.18;42.89
45327;BME280;31062;49.678;24.560;2023-04-28T10:03:23;98727.78;;;11.29;43.21
45327;BME280;31062;49.678;24.560;2023-04-28T10:06:13;98657.88;;;10.88;42.16
45327;BME280;31062;49.678;24.560;2023-04-28T10:08:59;98636.16;;;10.77;41.79
45327;BME280;31062;49.678;24.560;2023-04-28T10:11:46;98563.78;;;10.23;43.27
45327;BME280;31062;49.678;24.560;2023-04-28T10:14:33;98720.38;;;11.31;43.22
45327;BME280;31062;49.678;24.560;2023-04-28T10:17:21;98713.28;;;11.38;44.66
45327;BME280;31062;49.678;24.560;2023-04-28T10:20:10;98535.94;;;10.39;43.08
45327;BME280;31062;49.678;24.560;2023-04-28T10:26:15;98696.69;;;11.48;40.42
45327;BME280;31062;49.678;24.560;2023-04-28T10:29:06;98659.88;;;11.13;42.82
45327;BME280;31062;49.678;24.560;2023-04-28T10:32:15;98699.06;;;11.68;42.49
45327;BME280;31062;49.678;24.560;2023-04-28T10:40:54;98692.06;;;11.84;41.23
45327;BME280;31062;49.678;24.560;2023-04-28T10:43:40;98704.97;;;11.90;40.78
45327;BME280;31062;49.678;24.560;2023-04-28T10:46:27;98691.59;;;11.78;40.60
45327;BME280;31062;49.678;24.560;2023-04-28T10:55:29;98701.28;;;11.87;41.67
45327;BME280;31062;49.678;24.560;2023-04-28T11:04:09;98699.31;;;11.97;40.54
45327;BME280;31062;49.678;24.560;2023-04-28T11:07:10;98528.00;;;10.94;40.80
45327;BME280;31062;49.678;24.560;2023-04-28T11:09:58;98589.34;;;11.33;39.54
45327;BME280;31062;49.678;24.560;2023-04-28T11:16:07;98631.69;;;11.51;39.15
45327;BME280;31062;49.678;24.560;2023-04-28T11:18:58;98680.44;;;11.96;40.19
45327;BME280;31062;49.678;24.560;2023-04-28T11:21:43;98564.72;;;11.20;41.92
45327;BME280;31062;49.678;24.560;2023-04-28T11:24:30;98555.78;;;11.21;41.65
45327;BME280;31062;49.678;24.560;2023-04-28T11:27:22;98678.03;;;12.09;42.81
45327;BME280;31062;49.678;24.560;2023-04-28T11:30:19;98521.13;;;11.13;41.71
45327;BME280;31062;49.678;24.560;2023-04-28T11:33:07;98683.09;;;12.20;41.23
45327;BME280;31062;49.678;24.560;2023-04-28T11:35:53;98671.59;;;12.07;40.87
45327;BME280;31062;49.678;24.560;2023-04-28T11:38:45;98672.44;;;11.82;41.72
45327;BME280;31062;49.678;24.560;2023-04-28T11:41:31;98677.25;;;11.82;41.97
45327;BME280;31062;49.678;24.560;2023-04-28T11:44:20;98649.19;;;11.78;41.52
45327;BME280;31062;49.678;24.560;2023-04-28T11:47:06;98691.69;;;11.98;42.78
45327;BME280;31062;49.678;24.560;2023-04-28T11:49:52;98513.63;;;10.88;41.31
45327;BME280;31062;49.678;24.560;2023-04-28T11:52:48;98669.63;;;12.00;43.14
45327;BME280;31062;49.678;24.560;2023-04-28T11:55:38;98624.50;;;11.82;41.76
45327;BME280;31062;49.678;24.560;2023-04-28T11:58:24;98505.13;;;11.03;41.33
45327;BME280;31062;49.678;24.560;2023-04-28T12:01:12;98629.78;;;11.88;42.30
45327;BME280;31062;49.678;24.560;2023-04-28T12:03:59;98662.81;;;12.37;43.28
45327;BME280;31062;49.678;24.560;2023-04-28T12:06:45;98506.72;;;11.41;42.87
45327;BME280;31062;49.678;24.560;2023-04-28T12:09:32;98661.44;;;12.55;40.73
45327;BME280;31062;49.678;24.560;2023-04-28T12:12:29;98586.38;;;12.19;40.44
45327;BME280;31062;49.678;24.560;2023-04-28T12:15:41;98648.59;;;12.69;40.31
45327;BME280;31062;49.678;24.560;2023-04-28T12:18:26;98529.66;;;11.85;39.69
45327;BME280;31062;49.678;24.560;2023-04-28T12:21:19;98647.72;;;12.67;41.54
45327;BME280;31062;49.678;24.560;2023-04-28T12:24:19;98548.00;;;12.08;40.45
45327;BME280;31062;49.678;24.560;2023-04-28T12:27:19;98595.81;;;12.33;39.65
45327;BME280;31062;49.678;24.560;2023-04-28T12:33:05;98644.50;;;12.71;39.99
45327;BME280;31062;49.678;24.560;2023-04-28T12:35:52;98613.72;;;12.49;40.11
45327;BME280;31062;49.678;24.560;2023-04-28T12:38:46;98487.34;;;11.77;39.97
45327;BME280;31062;49.678;24.560;2023-04-28T12:41:33;98642.31;;;12.69;40.66
45327;BME280;31062;49.678;24.560;2023-04-28T12:44:19;98620.91;;;12.62;41.24
45327;BME280;31062;49.678;24.560;2023-04-28T12:47:07;98607.81;;;12.45;40.93
45327;BME280;31062;49.678;24.560;2023-04-28T12:49:55;98627.97;;;12.63;40.38
45327;BME280;31062;49.678;24.560;2023-04-28T12:52:41;98633.63;;;12.55;40.12
45327;BME280;31062;49.678;24.560;2023-04-28T12:55:28;98606.56;;;12.56;39.97
45327;BME280;31062;49.678;24.560;2023-04-28T12:58:15;98607.59;;;12.60;39.54
45327;BME280;31062;49.678;24.560;2023-04-28T13:01:04;98538.22;;;12.16;40.32
45327;BME280;31062;49.678;24.560;2023-04-28T13:03:49;98463.38;;;11.82;40.53
45327;BME280;31062;49.678;24.560;2023-04-28T13:06:38;98532.84;;;12.28;38.79
45327;BME280;31062;49.678;24.560;2023-04-28T13:09:25;98563.22;;;12.53;37.98
45327;BME280;31062;49.678;24.560;2023-04-28T13:12:11;98538.00;;;12.41;38.62
45327;BME280;31062;49.678;24.560;2023-04-28T13:14:58;98588.09;;;12.51;37.84
45327;BME280;31062;49.678;24.560;2023-04-28T13:17:47;98577.56;;;12.59;37.39
45327;BME280;31062;49.678;24.560;2023-04-28T13:20:32;98581.25;;;12.61;38.40
45327;BME280;31062;49.678;24.560;2023-04-28T13:23:19;98584.16;;;12.63;38.54
45327;BME280;31062;49.678;24.560;2023-04-28T13:26:05;98425.59;;;11.69;38.79
45327;BME280;31062;49.678;24.560;2023-04-28T13:28:51;98578.78;;;12.75;39.48
45327;BME280;31062;49.678;24.560;2023-04-28T13:31:36;98569.28;;;12.88;40.82
45327;BME280;31062;49.678;24.560;2023-04-28T13:34:22;98419.56;;;12.00;37.34
45327;BME280;31062;49.678;24.560;2023-04-28T13:37:08;98562.41;;;13.08;38.00
45327;BME280;31062;49.678;24.560;2023-04-28T13:39:54;98401.91;;;12.14;38.23
45327;BME280;31062;49.678;24.560;2023-04-28T13:42:40;98553.38;;;13.27;36.20
45327;BME280;31062;49.678;24.560;2023-04-28T13:45:26;98542.22;;;13.17;38.04
45327;BME280;31062;49.678;24.560;2023-04-28T13:48:12;98552.19;;;13.20;38.16
45327;BME280;31062;49.678;24.560;2023-04-28T13:50:58;98520.38;;;13.04;39.76
45327;BME280;31062;49.678;24.560;2023-04-28T13:53:43;98555.56;;;13.19;38.58
45327;BME280;31062;49.678;24.560;2023-04-28T13:56:29;98377.16;;;11.99;40.39
45327;BME280;31062;49.678;24.560;2023-04-28T13:59:16;98551.13;;;13.06;39.57
45327;BME280;31062;49.678;24.560;2023-04-28T14:02:02;98540.75;;;12.97;37.55
45327;BME280;31062;49.678;24.560;2023-04-28T14:04:48;98503.81;;;12.67;39.01
45327;BME280;31062;49.678;24.560;2023-04-28T14:07:35;98514.19;;;12.57;39.56
45327;BME280;31062;49.678;24.560;2023-04-28T14:10:21;98508.94;;;12.61;38.16
45327;BME280;31062;49.678;24.560;2023-04-28T14:13:08;98526.53;;;12.74;38.82
45327;BME280;31062;49.678;24.560;2023-04-28T14:15:54;98409.34;;;12.02;39.27
45327;BME280;31062;49.678;24.560;2023-04-28T14:18:44;98510.69;;;12.76;39.04
45327;BME280;31062;49.678;24.560;2023-04-28T14:21:29;98551.13;;;12.87;38.43
45327;BME280;31062;49.678;24.560;2023-04-28T14:24:15;98433.09;;;12.32;38.59
45327;BME280;31062;49.678;24.560;2023-04-28T14:27:01;98525.34;;;12.96;38.89
45327;BME280;31062;49.678;24.560;2023-04-28T14:29:47;98505.75;;;12.75;38.77
45327;BME280;31062;49.678;24.560;2023-04-28T14:32:33;98520.25;;;12.92;38.00
45327;BME280;31062;49.678;24.560;2023-04-28T14:35:19;98473.19;;;12.48;38.27
45327;BME280;31062;49.678;24.560;2023-04-28T14:38:05;98489.59;;;12.63;38.49
45327;BME280;31062;49.678;24.560;2023-04-28T14:40:50;98454.16;;;12.25;39.41
45327;BME280;31062;49.678;24.560;2023-04-28T14:43:36;98524.75;;;12.68;39.09
45327;BME280;31062;49.678;24.560;2023-04-28T14:46:22;98513.75;;;12.71;38.46
45327;BME280;31062;49.678;24.560;2023-04-28T14:49:07;98345.78;;;11.60;38.73
45327;BME280;31062;49.678;24.560;2023-04-28T14:51:53;98486.38;;;12.57;38.13
45327;BME280;31062;49.678;24.560;2023-04-28T14:54:39;98510.69;;;12.66;38.54
45327;BME280;31062;49.678;24.560;2023-04-28T14:57:25;98510.56;;;12.74;38.24
45327;BME280;31062;49.678;24.560;2023-04-28T15:00:11;98436.75;;;12.25;38.34
45327;BME280;31062;49.678;24.560;2023-04-28T15:02:57;98524.44;;;12.64;38.83
45327;BME280;31062;49.678;24.560;2023-04-28T15:05:43;98397.28;;;11.80;39.02
45327;BME280;31062;49.678;24.560;2023-04-28T15:08:28;98443.31;;;12.20;38.88
45327;BME280;31062;49.678;24.560;2023-04-28T15:11:14;98384.75;;;11.79;39.36
45327;BME280;31062;49.678;24.560;2023-04-28T15:14:00;98500.16;;;12.55;38.81